Deer Creek, Indiana
Current Conditions -  °F | °C
As of 11:15 PM on Sunday 21 Dec 2014 (Local Time) from KGGP Reporting Station
Haze Haze  
Wind Chill: 23°   Ceiling: Unl
Heat Index: 30°   Visibility: 5mi
Dew Point: 27°   Wind: 7mph
Humidity: 86%   Direction: 130°SE
Pressure: 30.09"   Gusts: NA
Location:  40.5923°N, 86.4903°W
Report Text: KGGP 220415Z AUTO 13006KT 5SM BR CLR M01/M03 A3009 RMK AO2
Loading
Personal Weather Stations






























Interactive Weather Map New forecast layout! Learn more

10-Day Weather Forecast

Advertisements
Track Severe Weather on mobile